KBTR/BTR METAR and TAF weather

Enter ICAO airport designator
Station Type Date Time Source
KBTR METAR 2018/12/10 18:53 UTC NOAA

KBTR 101853Z 30010KT 10SM CLR 11/M01 A3028 RMK AO2 SLP252 T01111011


Station Type Date Time Source
KBTR Decoded METAR 2018/12/10 18:53 UTC NOAA

BATON ROUGE METRO RYAN FIELD, LA, United States (KBTR) 30-32N 91-09W 21M
Dec 10, 2018 - 01:53 PM EST / 2018.12.10 1853 UTC
Wind: from the WNW (300 degrees) at 12 MPH (10 KT):0
Visibility: 10 mile(s):0
Sky conditions: clear
Temperature: 52.0 F (11.1 C)
Dew Point: 30.0 F (-1.1 C)
Relative Humidity: 42%
Pressure (altimeter): 30.28 in. Hg (1025 hPa)
ob: KBTR 101853Z 30010KT 10SM CLR 11/M01 A3028 RMK AO2 SLP252 T01111011
cycle: 19

Station Type Date Time Source
KBTR TAF 2018/12/10 18:30 UTC NOAA

TAF KBTR 101727Z 1018/1118 34009KT P6SM SKC
FM110000 VRB04KT P6SM FEW070 SCT130


Example: see airport list